sensor_id;sensor_type;location;lat;lon;timestamp;P1;durP1;ratioP1;P2;durP2;ratioP2
22515;SDS011;11424;48.860;9.624;2024-01-15T00:01:49;8.3;;;19.1;;
22515;SDS011;11424;48.860;9.624;2024-01-15T00:06:49;8.4;;;19.1;;
22515;SDS011;11424;48.860;9.624;2024-01-15T00:11:49;8.9;;;22.4;;
22515;SDS011;11424;48.860;9.624;2024-01-15T00:16:49;8.2;;;20.9;;
22515;SDS011;11424;48.860;9.624;2024-01-15T00:21:49;6.7;;;16.3;;
22515;SDS011;11424;48.860;9.624;2024-01-15T00:26:49;6;;;14.1;;
22515;SDS011;11424;48.860;9.624;2024-01-15T00:31:49;5.5;;;13;;
22515;SDS011;11424;48.860;9.624;2024-01-15T00:36:49;5.8;;;13.7;;
22515;SDS011;11424;48.860;9.624;2024-01-15T00:41:49;5.5;;;13.2;;
22515;SDS011;11424;48.860;9.624;2024-01-15T00:46:49;5.8;;;11.8;;
22515;SDS011;11424;48.860;9.624;2024-01-15T00:51:49;5.5;;;12.4;;
22515;SDS011;11424;48.860;9.624;2024-01-15T00:56:49;6.4;;;16.6;;
22515;SDS011;11424;48.860;9.624;2024-01-15T01:01:49;6;;;14.2;;
22515;SDS011;11424;48.860;9.624;2024-01-15T01:06:49;6.1;;;14.6;;
22515;SDS011;11424;48.860;9.624;2024-01-15T01:11:49;5.9;;;12.6;;
22515;SDS011;11424;48.860;9.624;2024-01-15T01:16:49;6.1;;;16.8;;
22515;SDS011;11424;48.860;9.624;2024-01-15T01:21:49;6;;;15.1;;
22515;SDS011;11424;48.860;9.624;2024-01-15T01:26:49;6.7;;;14.7;;
22515;SDS011;11424;48.860;9.624;2024-01-15T01:31:49;6.8;;;16.8;;
22515;SDS011;11424;48.860;9.624;2024-01-15T01:36:49;7.4;;;16.9;;
22515;SDS011;11424;48.860;9.624;2024-01-15T01:41:49;6.6;;;15.3;;
22515;SDS011;11424;48.860;9.624;2024-01-15T01:46:49;7.2;;;17.2;;
22515;SDS011;11424;48.860;9.624;2024-01-15T01:51:49;6.8;;;16.9;;
22515;SDS011;11424;48.860;9.624;2024-01-15T01:56:49;6.1;;;12.9;;
22515;SDS011;11424;48.860;9.624;2024-01-15T02:01:49;7;;;16;;
22515;SDS011;11424;48.860;9.624;2024-01-15T02:06:49;7.5;;;18.4;;
22515;SDS011;11424;48.860;9.624;2024-01-15T02:11:49;7.2;;;15.1;;
22515;SDS011;11424;48.860;9.624;2024-01-15T02:16:49;6.9;;;15.6;;
22515;SDS011;11424;48.860;9.624;2024-01-15T02:21:49;6.5;;;14.3;;
22515;SDS011;11424;48.860;9.624;2024-01-15T02:26:49;5.5;;;11.7;;
22515;SDS011;11424;48.860;9.624;2024-01-15T02:31:49;6.1;;;13.1;;
22515;SDS011;11424;48.860;9.624;2024-01-15T02:36:49;6.4;;;13.4;;
22515;SDS011;11424;48.860;9.624;2024-01-15T02:41:49;5.3;;;11.1;;
22515;SDS011;11424;48.860;9.624;2024-01-15T02:46:49;6.1;;;14.5;;
22515;SDS011;11424;48.860;9.624;2024-01-15T02:51:49;6.2;;;13;;
22515;SDS011;11424;48.860;9.624;2024-01-15T02:56:49;6;;;14.2;;
22515;SDS011;11424;48.860;9.624;2024-01-15T03:01:49;6;;;14;;
22515;SDS011;11424;48.860;9.624;2024-01-15T03:06:49;5.6;;;12;;
22515;SDS011;11424;48.860;9.624;2024-01-15T03:11:49;5.6;;;11.8;;
22515;SDS011;11424;48.860;9.624;2024-01-15T03:16:49;6;;;13.1;;
22515;SDS011;11424;48.860;9.624;2024-01-15T03:21:49;5;;;11.3;;
22515;SDS011;11424;48.860;9.624;2024-01-15T03:26:49;5.7;;;12.9;;
22515;SDS011;11424;48.860;9.624;2024-01-15T03:31:49;5.9;;;12.8;;
22515;SDS011;11424;48.860;9.624;2024-01-15T03:36:49;5.2;;;10.7;;
22515;SDS011;11424;48.860;9.624;2024-01-15T03:41:49;5.5;;;11.2;;
22515;SDS011;11424;48.860;9.624;2024-01-15T03:46:49;4.7;;;9.4;;
22515;SDS011;11424;48.860;9.624;2024-01-15T03:51:49;5;;;10.8;;
22515;SDS011;11424;48.860;9.624;2024-01-15T03:56:49;4.4;;;8.2;;
22515;SDS011;11424;48.860;9.624;2024-01-15T04:01:49;5.3;;;12.2;;
22515;SDS011;11424;48.860;9.624;2024-01-15T04:06:49;4.5;;;8.5;;
22515;SDS011;11424;48.860;9.624;2024-01-15T04:11:49;4;;;8.6;;
22515;SDS011;11424;48.860;9.624;2024-01-15T04:16:49;4.7;;;9.9;;
22515;SDS011;11424;48.860;9.624;2024-01-15T04:21:49;4.6;;;9.4;;
22515;SDS011;11424;48.860;9.624;2024-01-15T04:26:49;5.9;;;14.1;;
22515;SDS011;11424;48.860;9.624;2024-01-15T04:31:49;5.6;;;12.1;;
22515;SDS011;11424;48.860;9.624;2024-01-15T04:36:49;4.6;;;11.5;;
22515;SDS011;11424;48.860;9.624;2024-01-15T04:41:49;4.4;;;8.4;;
22515;SDS011;11424;48.860;9.624;2024-01-15T04:46:49;5;;;10.1;;
22515;SDS011;11424;48.860;9.624;2024-01-15T04:51:49;4.5;;;9.2;;
22515;SDS011;11424;48.860;9.624;2024-01-15T04:56:49;4;;;7.9;;
22515;SDS011;11424;48.860;9.624;2024-01-15T05:01:49;4.9;;;10.2;;
22515;SDS011;11424;48.860;9.624;2024-01-15T05:06:49;6.7;;;15.3;;
22515;SDS011;11424;48.860;9.624;2024-01-15T05:11:49;6;;;12;;
22515;SDS011;11424;48.860;9.624;2024-01-15T05:16:49;6.1;;;14;;
22515;SDS011;11424;48.860;9.624;2024-01-15T05:21:49;5.2;;;9.3;;
22515;SDS011;11424;48.860;9.624;2024-01-15T05:26:49;7.2;;;18.7;;
22515;SDS011;11424;48.860;9.624;2024-01-15T05:31:49;12.1;;;33.7;;
22515;SDS011;11424;48.860;9.624;2024-01-15T05:36:49;6.8;;;16;;
22515;SDS011;11424;48.860;9.624;2024-01-15T05:41:49;5.1;;;11.5;;
22515;SDS011;11424;48.860;9.624;2024-01-15T05:46:49;7.1;;;14.5;;
22515;SDS011;11424;48.860;9.624;2024-01-15T05:51:49;7;;;14.1;;
22515;SDS011;11424;48.860;9.624;2024-01-15T05:56:49;5.8;;;12.5;;
22515;SDS011;11424;48.860;9.624;2024-01-15T06:01:49;5.9;;;11.3;;
22515;SDS011;11424;48.860;9.624;2024-01-15T06:06:49;6.3;;;15.3;;
22515;SDS011;11424;48.860;9.624;2024-01-15T06:11:49;5.8;;;10.7;;
22515;SDS011;11424;48.860;9.624;2024-01-15T06:16:49;7;;;15.6;;
22515;SDS011;11424;48.860;9.624;2024-01-15T06:21:49;4.7;;;10;;
22515;SDS011;11424;48.860;9.624;2024-01-15T06:26:49;5.1;;;8.5;;
22515;SDS011;11424;48.860;9.624;2024-01-15T06:31:49;7.2;;;16.6;;
22515;SDS011;11424;48.860;9.624;2024-01-15T06:36:49;5.2;;;11.4;;
22515;SDS011;11424;48.860;9.624;2024-01-15T06:41:49;5.3;;;12.3;;
22515;SDS011;11424;48.860;9.624;2024-01-15T06:46:49;5.7;;;10;;
22515;SDS011;11424;48.860;9.624;2024-01-15T06:51:49;5;;;9.5;;
22515;SDS011;11424;48.860;9.624;2024-01-15T06:56:49;5.1;;;11;;
22515;SDS011;11424;48.860;9.624;2024-01-15T07:01:49;4.5;;;9.2;;
22515;SDS011;11424;48.860;9.624;2024-01-15T07:06:49;5.2;;;11.8;;
22515;SDS011;11424;48.860;9.624;2024-01-15T07:11:49;5.1;;;10.6;;
22515;SDS011;11424;48.860;9.624;2024-01-15T07:16:49;4;;;7;;
22515;SDS011;11424;48.860;9.624;2024-01-15T07:21:49;5.6;;;13.5;;
22515;SDS011;11424;48.860;9.624;2024-01-15T07:26:49;5.5;;;11;;
22515;SDS011;11424;48.860;9.624;2024-01-15T07:31:49;5.7;;;13.2;;
22515;SDS011;11424;48.860;9.624;2024-01-15T07:36:49;5.8;;;13;;
22515;SDS011;11424;48.860;9.624;2024-01-15T07:41:49;6.3;;;11.9;;
22515;SDS011;11424;48.860;9.624;2024-01-15T07:46:49;4.1;;;7.8;;
22515;SDS011;11424;48.860;9.624;2024-01-15T07:51:49;4.1;;;7.3;;
22515;SDS011;11424;48.860;9.624;2024-01-15T07:56:53;3.9;;;7.3;;
22515;SDS011;11424;48.860;9.624;2024-01-15T08:01:49;3.5;;;6.1;;
22515;SDS011;11424;48.860;9.624;2024-01-15T08:06:49;5.7;;;12.7;;
22515;SDS011;11424;48.860;9.624;2024-01-15T08:11:49;5.1;;;9.9;;
22515;SDS011;11424;48.860;9.624;2024-01-15T08:16:49;4.5;;;9.1;;
22515;SDS011;11424;48.860;9.624;2024-01-15T08:21:49;5.2;;;11.1;;
22515;SDS011;11424;48.860;9.624;2024-01-15T08:26:49;5.1;;;9.6;;
22515;SDS011;11424;48.860;9.624;2024-01-15T08:31:49;4.2;;;8.4;;
22515;SDS011;11424;48.860;9.624;2024-01-15T08:36:49;4.6;;;9.3;;
22515;SDS011;11424;48.860;9.624;2024-01-15T08:41:49;4.1;;;7.4;;
22515;SDS011;11424;48.860;9.624;2024-01-15T08:46:49;4.5;;;8.4;;
22515;SDS011;11424;48.860;9.624;2024-01-15T08:51:49;5.2;;;10.3;;
22515;SDS011;11424;48.860;9.624;2024-01-15T08:56:49;4.5;;;7.9;;
22515;SDS011;11424;48.860;9.624;2024-01-15T09:01:49;4.7;;;8.4;;
22515;SDS011;11424;48.860;9.624;2024-01-15T09:06:49;4.4;;;7.6;;
22515;SDS011;11424;48.860;9.624;2024-01-15T09:11:49;4.4;;;8.2;;
22515;SDS011;11424;48.860;9.624;2024-01-15T09:16:49;3.1;;;5.8;;
22515;SDS011;11424;48.860;9.624;2024-01-15T09:21:49;3.7;;;6.1;;
22515;SDS011;11424;48.860;9.624;2024-01-15T09:26:49;3.7;;;6.9;;
22515;SDS011;11424;48.860;9.624;2024-01-15T09:31:49;3.8;;;6.9;;
22515;SDS011;11424;48.860;9.624;2024-01-15T09:36:49;4;;;8.3;;
22515;SDS011;11424;48.860;9.624;2024-01-15T09:41:49;3.6;;;7.9;;
22515;SDS011;11424;48.860;9.624;2024-01-15T09:46:49;4.1;;;8.3;;
22515;SDS011;11424;48.860;9.624;2024-01-15T09:51:49;3.2;;;5.1;;
22515;SDS011;11424;48.860;9.624;2024-01-15T09:56:49;3.5;;;6;;
22515;SDS011;11424;48.860;9.624;2024-01-15T10:01:50;3;;;5.1;;
22515;SDS011;11424;48.860;9.624;2024-01-15T10:06:50;3.7;;;6.8;;
22515;SDS011;11424;48.860;9.624;2024-01-15T10:11:49;3.3;;;5.2;;
22515;SDS011;11424;48.860;9.624;2024-01-15T10:16:49;2.8;;;4.9;;
22515;SDS011;11424;48.860;9.624;2024-01-15T10:21:49;3.1;;;4.5;;
22515;SDS011;11424;48.860;9.624;2024-01-15T10:26:49;2.8;;;3.9;;
22515;SDS011;11424;48.860;9.624;2024-01-15T10:31:49;3.7;;;7.5;;
22515;SDS011;11424;48.860;9.624;2024-01-15T10:36:49;2.8;;;4.3;;
22515;SDS011;11424;48.860;9.624;2024-01-15T10:41:49;3.1;;;5.5;;
22515;SDS011;11424;48.860;9.624;2024-01-15T10:46:49;3.3;;;6.6;;
22515;SDS011;11424;48.860;9.624;2024-01-15T10:51:49;3.3;;;5.1;;
22515;SDS011;11424;48.860;9.624;2024-01-15T10:56:49;3.4;;;5.9;;
22515;SDS011;11424;48.860;9.624;2024-01-15T11:01:49;5.5;;;10.8;;
22515;SDS011;11424;48.860;9.624;2024-01-15T11:06:50;4.6;;;8.9;;
22515;SDS011;11424;48.860;9.624;2024-01-15T11:11:52;4.5;;;8.6;;
22515;SDS011;11424;48.860;9.624;2024-01-15T11:16:53;6.6;;;13.4;;
22515;SDS011;11424;48.860;9.624;2024-01-15T11:21:49;4.4;;;7.6;;
22515;SDS011;11424;48.860;9.624;2024-01-15T11:26:49;3.3;;;5.7;;
22515;SDS011;11424;48.860;9.624;2024-01-15T11:31:57;3.4;;;5.7;;
22515;SDS011;11424;48.860;9.624;2024-01-15T11:37:00;3.4;;;5;;
22515;SDS011;11424;48.860;9.624;2024-01-15T11:41:49;2.8;;;3.4;;
22515;SDS011;11424;48.860;9.624;2024-01-15T11:46:52;2.4;;;3.4;;
22515;SDS011;11424;48.860;9.624;2024-01-15T11:51:49;2.8;;;4.1;;
22515;SDS011;11424;48.860;9.624;2024-01-15T11:56:49;3;;;4.6;;
22515;SDS011;11424;48.860;9.624;2024-01-15T12:01:49;3;;;4.5;;
22515;SDS011;11424;48.860;9.624;2024-01-15T12:06:49;2.7;;;3.1;;
22515;SDS011;11424;48.860;9.624;2024-01-15T12:11:51;3;;;4.4;;
22515;SDS011;11424;48.860;9.624;2024-01-15T12:16:49;2.6;;;4.7;;
22515;SDS011;11424;48.860;9.624;2024-01-15T12:21:50;2.9;;;4.7;;
22515;SDS011;11424;48.860;9.624;2024-01-15T12:26:49;3.2;;;5;;
22515;SDS011;11424;48.860;9.624;2024-01-15T12:31:50;3.1;;;3.8;;
22515;SDS011;11424;48.860;9.624;2024-01-15T12:36:49;3.6;;;5;;
22515;SDS011;11424;48.860;9.624;2024-01-15T12:41:49;4.3;;;6.6;;
22515;SDS011;11424;48.860;9.624;2024-01-15T12:46:49;5.3;;;8.6;;
22515;SDS011;11424;48.860;9.624;2024-01-15T12:51:52;4.5;;;6.4;;
22515;SDS011;11424;48.860;9.624;2024-01-15T12:56:49;4;;;5.5;;
22515;SDS011;11424;48.860;9.624;2024-01-15T13:01:49;3.8;;;6.4;;
22515;SDS011;11424;48.860;9.624;2024-01-15T13:06:50;3;;;4.4;;
22515;SDS011;11424;48.860;9.624;2024-01-15T13:11:49;3.3;;;6.8;;
22515;SDS011;11424;48.860;9.624;2024-01-15T13:16:49;3.6;;;5;;
22515;SDS011;11424;48.860;9.624;2024-01-15T13:21:49;3.6;;;4.5;;
22515;SDS011;11424;48.860;9.624;2024-01-15T13:26:49;2.8;;;3.5;;
22515;SDS011;11424;48.860;9.624;2024-01-15T13:31:49;2.9;;;3.8;;
22515;SDS011;11424;48.860;9.624;2024-01-15T13:36:49;3.1;;;5.4;;
22515;SDS011;11424;48.860;9.624;2024-01-15T13:41:49;2.8;;;4.3;;
22515;SDS011;11424;48.860;9.624;2024-01-15T13:46:49;2.8;;;4.3;;
22515;SDS011;11424;48.860;9.624;2024-01-15T13:51:50;3.3;;;5.7;;
22515;SDS011;11424;48.860;9.624;2024-01-15T13:56:50;2.5;;;3.5;;
22515;SDS011;11424;48.860;9.624;2024-01-15T14:01:50;3.7;;;8;;
22515;SDS011;11424;48.860;9.624;2024-01-15T14:06:49;3.3;;;5.5;;
22515;SDS011;11424;48.860;9.624;2024-01-15T14:11:50;3.2;;;5;;
22515;SDS011;11424;48.860;9.624;2024-01-15T14:16:50;3.6;;;5.2;;
22515;SDS011;11424;48.860;9.624;2024-01-15T14:21:50;4.1;;;6.1;;
22515;SDS011;11424;48.860;9.624;2024-01-15T14:26:50;3.3;;;4.8;;
22515;SDS011;11424;48.860;9.624;2024-01-15T14:31:50;3.6;;;5.6;;
22515;SDS011;11424;48.860;9.624;2024-01-15T14:36:50;4.5;;;6.9;;
22515;SDS011;11424;48.860;9.624;2024-01-15T14:41:50;3.9;;;6.2;;
22515;SDS011;11424;48.860;9.624;2024-01-15T14:46:50;5.5;;;10.7;;
22515;SDS011;11424;48.860;9.624;2024-01-15T14:51:50;4.7;;;8.4;;
22515;SDS011;11424;48.860;9.624;2024-01-15T14:56:50;5.2;;;8.2;;
22515;SDS011;11424;48.860;9.624;2024-01-15T15:01:50;4.6;;;7;;
22515;SDS011;11424;48.860;9.624;2024-01-15T15:06:50;3.9;;;5.3;;
22515;SDS011;11424;48.860;9.624;2024-01-15T15:11:50;6;;;11.9;;
22515;SDS011;11424;48.860;9.624;2024-01-15T15:16:50;5.2;;;7.6;;
22515;SDS011;11424;48.860;9.624;2024-01-15T15:21:50;5.9;;;11.6;;
22515;SDS011;11424;48.860;9.624;2024-01-15T15:26:50;5.9;;;8.4;;
22515;SDS011;11424;48.860;9.624;2024-01-15T15:31:50;6.2;;;11.1;;
22515;SDS011;11424;48.860;9.624;2024-01-15T15:36:50;6;;;10.4;;
22515;SDS011;11424;48.860;9.624;2024-01-15T15:41:50;6.3;;;10.1;;
22515;SDS011;11424;48.860;9.624;2024-01-15T15:46:50;5.4;;;8.9;;
22515;SDS011;11424;48.860;9.624;2024-01-15T15:51:50;4.5;;;7.9;;
22515;SDS011;11424;48.860;9.624;2024-01-15T15:56:50;5;;;7.3;;
22515;SDS011;11424;48.860;9.624;2024-01-15T16:01:50;5.2;;;8;;
22515;SDS011;11424;48.860;9.624;2024-01-15T16:06:50;5.2;;;8.2;;
22515;SDS011;11424;48.860;9.624;2024-01-15T16:11:50;7.9;;;14.6;;
22515;SDS011;11424;48.860;9.624;2024-01-15T16:16:50;7.4;;;12.2;;
22515;SDS011;11424;48.860;9.624;2024-01-15T16:21:50;9.5;;;18.4;;
22515;SDS011;11424;48.860;9.624;2024-01-15T16:26:50;9.7;;;19;;
22515;SDS011;11424;48.860;9.624;2024-01-15T16:31:50;10.6;;;20.7;;
22515;SDS011;11424;48.860;9.624;2024-01-15T16:36:50;6.9;;;11.4;;
22515;SDS011;11424;48.860;9.624;2024-01-15T16:41:50;5.5;;;10.1;;
22515;SDS011;11424;48.860;9.624;2024-01-15T16:46:50;5.6;;;8.5;;
22515;SDS011;11424;48.860;9.624;2024-01-15T16:51:51;6.7;;;9.8;;
22515;SDS011;11424;48.860;9.624;2024-01-15T16:56:50;8.6;;;16.9;;
22515;SDS011;11424;48.860;9.624;2024-01-15T17:01:50;6.4;;;11.6;;
22515;SDS011;11424;48.860;9.624;2024-01-15T17:06:50;7.3;;;12.7;;
22515;SDS011;11424;48.860;9.624;2024-01-15T17:11:50;6.2;;;11.9;;
22515;SDS011;11424;48.860;9.624;2024-01-15T17:16:50;7.6;;;14.1;;
22515;SDS011;11424;48.860;9.624;2024-01-15T17:21:50;4.8;;;6.4;;
22515;SDS011;11424;48.860;9.624;2024-01-15T17:26:50;6;;;9;;
22515;SDS011;11424;48.860;9.624;2024-01-15T17:31:50;12.6;;;29.6;;
22515;SDS011;11424;48.860;9.624;2024-01-15T17:36:50;8.7;;;18.5;;
22515;SDS011;11424;48.860;9.624;2024-01-15T17:41:50;8;;;16.1;;
22515;SDS011;11424;48.860;9.624;2024-01-15T17:46:50;6.9;;;12.5;;
22515;SDS011;11424;48.860;9.624;2024-01-15T17:51:50;7.5;;;14.8;;
22515;SDS011;11424;48.860;9.624;2024-01-15T17:56:50;7.4;;;16;;
22515;SDS011;11424;48.860;9.624;2024-01-15T18:01:50;5.5;;;9.4;;
22515;SDS011;11424;48.860;9.624;2024-01-15T18:06:50;4.3;;;6.1;;
22515;SDS011;11424;48.860;9.624;2024-01-15T18:11:50;6.3;;;13.7;;
22515;SDS011;11424;48.860;9.624;2024-01-15T18:16:50;7.3;;;14;;
22515;SDS011;11424;48.860;9.624;2024-01-15T18:21:50;6.5;;;12.7;;
22515;SDS011;11424;48.860;9.624;2024-01-15T18:26:50;5.6;;;9.4;;
22515;SDS011;11424;48.860;9.624;2024-01-15T18:31:50;5.9;;;11;;
22515;SDS011;11424;48.860;9.624;2024-01-15T18:36:50;7;;;13.1;;
22515;SDS011;11424;48.860;9.624;2024-01-15T18:41:50;6.8;;;12.8;;
22515;SDS011;11424;48.860;9.624;2024-01-15T18:46:50;4.3;;;6.6;;
22515;SDS011;11424;48.860;9.624;2024-01-15T18:51:50;5.9;;;10.2;;
22515;SDS011;11424;48.860;9.624;2024-01-15T18:56:50;7.2;;;15.9;;
22515;SDS011;11424;48.860;9.624;2024-01-15T19:01:50;5.2;;;9.5;;
22515;SDS011;11424;48.860;9.624;2024-01-15T19:06:50;5.1;;;7.5;;
22515;SDS011;11424;48.860;9.624;2024-01-15T19:11:50;4.9;;;8.5;;
22515;SDS011;11424;48.860;9.624;2024-01-15T19:16:50;4.7;;;9.7;;
22515;SDS011;11424;48.860;9.624;2024-01-15T19:21:50;4.1;;;6.3;;
22515;SDS011;11424;48.860;9.624;2024-01-15T19:26:51;6;;;14.1;;
22515;SDS011;11424;48.860;9.624;2024-01-15T19:31:50;4.9;;;10.3;;
22515;SDS011;11424;48.860;9.624;2024-01-15T19:36:50;4.8;;;8.6;;
22515;SDS011;11424;48.860;9.624;2024-01-15T19:41:50;7.4;;;9.2;;
22515;SDS011;11424;48.860;9.624;2024-01-15T19:46:50;4;;;4.6;;
22515;SDS011;11424;48.860;9.624;2024-01-15T19:51:50;4.2;;;6.1;;
22515;SDS011;11424;48.860;9.624;2024-01-15T19:56:50;3.7;;;6.1;;
22515;SDS011;11424;48.860;9.624;2024-01-15T20:01:50;3.9;;;6.3;;
22515;SDS011;11424;48.860;9.624;2024-01-15T20:06:50;3.9;;;5.9;;
22515;SDS011;11424;48.860;9.624;2024-01-15T20:11:50;3.6;;;5;;
22515;SDS011;11424;48.860;9.624;2024-01-15T20:16:50;2.8;;;3.5;;
22515;SDS011;11424;48.860;9.624;2024-01-15T20:21:50;3.4;;;4.8;;
22515;SDS011;11424;48.860;9.624;2024-01-15T20:26:50;3.8;;;5.7;;
22515;SDS011;11424;48.860;9.624;2024-01-15T20:31:50;3.9;;;6.4;;
22515;SDS011;11424;48.860;9.624;2024-01-15T20:36:50;3.8;;;6.5;;
22515;SDS011;11424;48.860;9.624;2024-01-15T20:41:50;5.6;;;10.2;;
22515;SDS011;11424;48.860;9.624;2024-01-15T20:46:50;5;;;9.3;;
22515;SDS011;11424;48.860;9.624;2024-01-15T20:51:50;4.7;;;8.3;;
22515;SDS011;11424;48.860;9.624;2024-01-15T20:56:50;4.9;;;9.3;;
22515;SDS011;11424;48.860;9.624;2024-01-15T21:01:50;5.1;;;10.3;;
22515;SDS011;11424;48.860;9.624;2024-01-15T21:06:50;5.7;;;11;;
22515;SDS011;11424;48.860;9.624;2024-01-15T21:11:50;8.3;;;14.5;;
22515;SDS011;11424;48.860;9.624;2024-01-15T21:16:50;11;;;21.9;;
22515;SDS011;11424;48.860;9.624;2024-01-15T21:21:50;6;;;10.9;;
22515;SDS011;11424;48.860;9.624;2024-01-15T21:26:50;4.8;;;8.2;;
22515;SDS011;11424;48.860;9.624;2024-01-15T21:31:50;4.4;;;6.2;;
22515;SDS011;11424;48.860;9.624;2024-01-15T21:36:50;5;;;6.5;;
22515;SDS011;11424;48.860;9.624;2024-01-15T21:41:50;4.3;;;6.1;;
22515;SDS011;11424;48.860;9.624;2024-01-15T21:46:50;3;;;4.1;;
22515;SDS011;11424;48.860;9.624;2024-01-15T21:51:50;5.3;;;9.1;;
22515;SDS011;11424;48.860;9.624;2024-01-15T21:56:50;4.3;;;6;;
22515;SDS011;11424;48.860;9.624;2024-01-15T22:01:50;5.2;;;9.1;;
22515;SDS011;11424;48.860;9.624;2024-01-15T22:06:50;4.7;;;6.3;;
22515;SDS011;11424;48.860;9.624;2024-01-15T22:11:50;4.4;;;7.8;;
22515;SDS011;11424;48.860;9.624;2024-01-15T22:16:50;3.1;;;4.7;;
22515;SDS011;11424;48.860;9.624;2024-01-15T22:21:51;3.6;;;6.1;;
22515;SDS011;11424;48.860;9.624;2024-01-15T22:26:50;2;;;2.5;;
22515;SDS011;11424;48.860;9.624;2024-01-15T22:31:50;3.7;;;6.7;;
22515;SDS011;11424;48.860;9.624;2024-01-15T22:36:50;4;;;7.6;;
22515;SDS011;11424;48.860;9.624;2024-01-15T22:41:50;3.8;;;7.4;;
22515;SDS011;11424;48.860;9.624;2024-01-15T22:46:50;3.6;;;5.5;;
22515;SDS011;11424;48.860;9.624;2024-01-15T22:51:50;3;;;4.1;;
22515;SDS011;11424;48.860;9.624;2024-01-15T22:56:50;3;;;4;;
22515;SDS011;11424;48.860;9.624;2024-01-15T23:01:50;3;;;4.9;;
22515;SDS011;11424;48.860;9.624;2024-01-15T23:06:50;3.5;;;5;;
22515;SDS011;11424;48.860;9.624;2024-01-15T23:11:50;3;;;4.5;;
22515;SDS011;11424;48.860;9.624;2024-01-15T23:16:50;3.1;;;4.6;;
22515;SDS011;11424;48.860;9.624;2024-01-15T23:21:50;2.6;;;3.7;;
22515;SDS011;11424;48.860;9.624;2024-01-15T23:26:50;2.8;;;4.1;;
22515;SDS011;11424;48.860;9.624;2024-01-15T23:31:50;3.6;;;6.1;;
22515;SDS011;11424;48.860;9.624;2024-01-15T23:36:50;3.9;;;6.3;;
22515;SDS011;11424;48.860;9.624;2024-01-15T23:41:50;3.8;;;6.6;;
22515;SDS011;11424;48.860;9.624;2024-01-15T23:46:50;3.9;;;6.9;;
22515;SDS011;11424;48.860;9.624;2024-01-15T23:51:50;3.1;;;4.9;;
22515;SDS011;11424;48.860;9.624;2024-01-15T23:56:50;2.8;;;3.5;;
